Time;durP1;ratioP1;P1;durP2;ratioP2;P2;SDS_P1;SDS_P2;PMS_P1;PMS_P2;Temp;Humidity;BMP_temperature;BMP_pressure;BME280_temperature;BME280_humidity;BME280_pressure;Samples;Min_cycle;Max_cycle;Signal;HPM_P1;HPM_P2
2021/11/09 00:00:03;;;;;;;8.70;5.10;;;;;;;7.24;70.76;99778.36;106137;1315;22456;-64
2021/11/09 00:02:39;;;;;;;10.10;5.60;;;;;;;7.22;70.77;99777.14;106084;1316;138534;-64
2021/11/09 00:05:09;;;;;;;8.40;5.00;;;;;;;7.21;70.98;99779.99;106158;1318;22408;-63
2021/11/09 00:07:46;;;;;;;7.80;4.00;;;;;;;7.20;70.82;99779.27;106026;1315;139003;-63
2021/11/09 00:10:15;;;;;;;9.50;5.00;;;;;;;7.20;71.10;99784.70;106045;1318;22500;-64
2021/11/09 00:13:06;;;;;;;9.60;4.80;;;;;;;7.18;71.11;99785.05;106182;1315;22483;-64
2021/11/09 00:15:34;;;;;;;9.90;4.40;;;;;;;7.16;71.33;99784.79;106005;1316;141933;-64
2021/11/09 00:18:02;;;;;;;8.50;4.40;;;;;;;7.14;71.34;99789.73;106099;1318;22434;-64
2021/11/09 00:20:32;;;;;;;8.20;5.00;;;;;;;7.13;71.21;99789.70;106007;1316;138203;-63
2021/11/09 00:23:01;;;;;;;7.60;4.50;;;;;;;7.12;71.60;99788.80;106078;1318;23087;-63
2021/11/09 00:25:30;;;;;;;7.00;4.60;;;;;;;7.10;71.70;99791.44;105899;1320;22449;-63
2021/11/09 00:27:58;;;;;;;8.20;4.60;;;;;;;7.07;72.15;99792.98;105982;1318;137932;-64
2021/11/09 00:30:26;;;;;;;7.50;4.30;;;;;;;7.03;72.34;99787.21;106106;1319;22559;-64
2021/11/09 00:32:56;;;;;;;5.70;4.00;;;;;;;7.01;72.49;99776.31;106012;1318;137722;-64
2021/11/09 00:35:27;;;;;;;9.60;4.50;;;;;;;7.02;72.48;99777.14;106053;1318;22462;-64
2021/11/09 00:37:55;;;;;;;7.10;4.30;;;;;;;7.01;72.31;99784.48;105966;1318;139027;-64
2021/11/09 00:40:24;;;;;;;9.10;4.60;;;;;;;6.98;72.46;99790.56;106127;1315;22409;-64
2021/11/09 00:42:53;;;;;;;8.80;4.60;;;;;;;6.95;72.57;99791.02;105983;1315;22510;-64
2021/11/09 00:45:21;;;;;;;7.10;4.70;;;;;;;6.93;73.11;99792.31;105997;1315;138035;-64
2021/11/09 00:47:49;;;;;;;9.10;5.00;;;;;;;6.92;72.94;99793.81;106146;1315;23209;-64
2021/11/09 00:50:19;;;;;;;7.60;4.80;;;;;;;6.88;73.38;99790.86;105886;1315;251049;-64
2021/11/09 00:52:47;;;;;;;7.90;4.20;;;;;;;6.83;73.31;99791.86;106149;1315;22454;-64
2021/11/09 00:55:15;;;;;;;11.00;5.40;;;;;;;6.80;73.54;99796.70;106119;1315;22461;-64
2021/11/09 00:57:45;;;;;;;10.20;5.10;;;;;;;6.76;73.42;99797.84;105122;1320;138397;-64
2021/11/09 01:00:17;;;;;;;9.20;5.70;;;;;;;6.73;73.74;99799.13;106140;1315;23410;-64
2021/11/09 01:02:47;;;;;;;8.30;5.20;;;;;;;6.69;73.89;99801.70;105912;1315;138028;-64
2021/11/09 01:05:20;;;;;;;8.00;5.00;;;;;;;6.64;74.38;99799.66;105763;1315;22494;-64
2021/11/09 01:07:51;;;;;;;9.80;4.80;;;;;;;6.60;74.70;99803.02;106061;1315;138894;-64
2021/11/09 01:10:19;;;;;;;7.60;4.60;;;;;;;6.54;75.07;99801.58;106166;1315;22419;-64
2021/11/09 01:12:47;;;;;;;9.00;4.70;;;;;;;6.53;75.07;99806.83;106213;1315;22464;-64
2021/11/09 01:15:27;;;;;;;8.20;4.30;;;;;;;6.49;75.42;99811.83;106031;1315;138741;-64
2021/11/09 01:18:20;;;;;;;6.70;3.90;;;;;;;6.42;75.31;99811.98;106125;1316;23426;-64
2021/11/09 01:20:48;;;;;;;6.20;3.30;;;;;;;6.37;75.72;99809.00;106076;1319;138786;-65
2021/11/09 01:23:18;;;;;;;4.90;3.10;;;;;;;6.33;75.52;99811.34;106158;1315;22520;-64
2021/11/09 01:25:47;;;;;;;5.10;3.40;;;;;;;6.29;76.05;99813.17;106049;1315;139871;-64
2021/11/09 01:28:16;;;;;;;3.60;2.80;;;;;;;6.26;76.16;99813.44;105885;1315;22563;-63
2021/11/09 01:30:44;;;;;;;5.80;3.10;;;;;;;6.25;76.22;99818.11;101998;1316;22632;-63
2021/11/09 01:33:12;;;;;;;4.50;2.60;;;;;;;6.23;76.11;99824.73;101946;1322;138194;-63
2021/11/09 01:35:40;;;;;;;4.20;3.10;;;;;;;6.19;76.22;99830.73;102075;1316;22616;-63
2021/11/09 01:38:09;;;;;;;3.80;3.10;;;;;;;6.17;76.49;99837.35;105523;1318;137915;-63
2021/11/09 01:40:38;;;;;;;3.50;2.60;;;;;;;6.15;76.31;99837.19;106128;1316;22439;-66
2021/11/09 01:43:07;;;;;;;3.50;2.20;;;;;;;6.12;76.07;99842.25;106133;1316;23649;-66
2021/11/09 01:45:36;;;;;;;4.40;2.70;;;;;;;6.08;75.31;99838.82;105969;1316;140489;-67
2021/11/09 01:48:04;;;;;;;4.60;2.40;;;;;;;6.06;74.85;99838.11;106154;1316;22554;-66
2021/11/09 01:50:35;;;;;;;5.10;2.90;;;;;;;6.02;74.95;99840.02;106069;1315;139016;-66
2021/11/09 01:53:04;;;;;;;4.00;2.50;;;;;;;5.99;74.65;99840.61;106185;1320;22416;-66
2021/11/09 01:55:33;;;;;;;5.20;2.60;;;;;;;5.98;75.10;99844.02;106174;1316;22477;-66
2021/11/09 01:58:02;;;;;;;4.50;2.50;;;;;;;5.97;75.29;99846.91;105942;1318;138555;-66
2021/11/09 02:00:35;;;;;;;4.70;2.20;;;;;;;5.96;75.39;99848.40;106201;1314;22472;-66
2021/11/09 02:03:04;;;;;;;2.60;2.00;;;;;;;5.95;74.94;99845.17;106026;1315;140157;-66
2021/11/09 02:05:32;;;;;;;7.10;2.10;;;;;;;5.94;74.89;99849.62;106170;1316;22452;-66
2021/11/09 02:08:01;;;;;;;2.20;1.60;;;;;;;5.92;75.03;99859.92;106099;1316;138771;-66
2021/11/09 02:10:33;;;;;;;3.00;1.60;;;;;;;5.86;75.13;99872.23;106172;1316;22540;-65
2021/11/09 02:13:01;;;;;;;2.70;1.50;;;;;;;5.79;74.97;99877.91;106077;1316;23507;-65
2021/11/09 02:15:31;;;;;;;2.50;1.60;;;;;;;5.73;75.45;99877.27;106090;1315;139670;-65
2021/11/09 02:17:59;;;;;;;3.90;1.90;;;;;;;5.68;75.25;99873.95;106163;1315;22487;-65
2021/11/09 02:20:28;;;;;;;2.90;2.00;;;;;;;5.62;75.61;99877.86;106082;1316;139994;-65
2021/11/09 02:22:57;;;;;;;2.30;1.60;;;;;;;5.57;75.64;99876.81;106172;1315;23305;-65
2021/11/09 02:25:26;;;;;;;2.30;1.70;;;;;;;5.53;75.84;99871.58;106191;1317;23248;-66
2021/11/09 02:27:54;;;;;;;2.00;1.50;;;;;;;5.52;76.14;99880.98;106068;1315;139134;-65
2021/11/09 02:30:23;;;;;;;2.50;1.60;;;;;;;5.49;76.36;99887.06;106061;1316;22507;-66
2021/11/09 02:32:52;;;;;;;5.00;1.40;;;;;;;5.48;76.09;99892.13;106052;1316;137709;-65
2021/11/09 02:35:22;;;;;;;2.60;1.60;;;;;;;5.44;76.14;99890.31;106181;1316;22470;-66
2021/11/09 02:37:51;;;;;;;2.10;1.50;;;;;;;5.42;76.01;99896.60;106039;1316;137784;-65
2021/11/09 02:40:20;;;;;;;2.60;1.80;;;;;;;5.39;75.96;99903.09;104217;1315;22572;-65
2021/11/09 02:42:55;;;;;;;2.20;1.70;;;;;;;5.37;75.94;99902.18;102273;1315;22657;-65
2021/11/09 02:45:37;;;;;;;2.30;1.60;;;;;;;5.35;76.37;99909.63;106110;1315;137835;-65
2021/11/09 02:48:19;;;;;;;2.30;1.60;;;;;;;5.31;76.11;99907.46;106144;1315;22489;-65
2021/11/09 02:50:52;;;;;;;2.10;1.70;;;;;;;5.29;76.35;99910.04;106038;1316;137677;-66
2021/11/09 02:56:05;;;;;;;2.80;2.00;;;;;;;5.26;76.01;99920.10;104976;1323;138917;-66
2021/11/09 03:01:09;;;;;;;3.30;2.20;;;;;;;5.19;76.14;99920.88;106197;1315;23263;-66
2021/11/09 03:12:02;;;;;;;3.10;2.50;;;;;;;5.03;75.67;99925.58;105594;1321;25529;-66
2021/11/09 03:14:30;;;;;;;2.50;1.90;;;;;;;5.00;75.16;99931.46;105545;1321;137963;-66
2021/11/09 03:17:05;;;;;;;3.00;1.90;;;;;;;4.94;74.56;99933.00;105596;1328;22710;-66
2021/11/09 03:19:38;;;;;;;3.50;2.10;;;;;;;4.87;74.31;99939.91;105363;1321;22593;-67
2021/11/09 03:46:59;;;;;;;16.60;8.00;;;;;;;4.42;76.05;99954.16;106025;1318;22412;-66
2021/11/09 03:49:29;;;;;;;8.50;4.00;;;;;;;4.39;76.24;99960.21;106122;1316;22644;-66
2021/11/09 03:51:58;;;;;;;6.80;4.00;;;;;;;4.36;76.24;99960.20;106129;1316;137890;-65
2021/11/09 03:54:29;;;;;;;6.40;3.50;;;;;;;4.33;76.31;99965.33;106147;1315;22621;-65
2021/11/09 03:59:46;;;;;;;6.90;3.60;;;;;;;4.26;76.55;99974.27;106140;1318;22440;-66
2021/11/09 04:05:07;;;;;;;5.60;3.70;;;;;;;4.14;77.00;99973.98;106169;1315;22392;-65
2021/11/09 04:10:17;;;;;;;7.50;3.50;;;;;;;4.05;77.46;99974.00;105977;1316;137591;-65
2021/11/09 04:15:47;;;;;;;8.50;3.90;;;;;;;3.98;77.58;99979.80;106073;1316;137914;-65
2021/11/09 04:38:31;;;;;;;4.50;2.80;;;;;;;3.70;78.55;100010.81;106134;1319;22521;-66
2021/11/09 05:11:10;;;;;;;5.10;3.60;;;;;;;2.80;78.80;100061.05;104911;1331;22498;-67
2021/11/09 05:13:41;;;;;;;10.00;5.30;;;;;;;2.76;78.90;100065.14;104985;1328;22440;-67
2021/11/09 05:16:09;;;;;;;7.60;5.50;;;;;;;2.70;78.81;100073.14;104864;1328;139441;-68
2021/11/09 05:18:37;;;;;;;5.40;3.80;;;;;;;2.63;78.88;100073.80;104972;1327;23140;-67
2021/11/09 05:21:05;;;;;;;7.40;3.70;;;;;;;2.58;79.09;100077.75;104853;1328;137524;-67
2021/11/09 05:23:33;;;;;;;8.30;5.60;;;;;;;2.54;79.20;100086.48;105014;1331;24947;-69
2021/11/09 05:26:02;;;;;;;9.10;5.60;;;;;;;2.52;79.58;100093.53;104845;1331;23462;-66
2021/11/09 05:28:30;;;;;;;6.70;4.40;;;;;;;2.53;79.61;100096.77;104841;1328;137541;-67
2021/11/09 05:30:58;;;;;;;8.40;5.80;;;;;;;2.54;79.66;100103.52;104927;1328;22431;-66
2021/11/09 05:33:27;;;;;;;7.50;3.00;;;;;;;2.52;79.59;100106.31;104852;1327;140604;-66
2021/11/09 05:35:57;;;;;;;6.70;2.70;;;;;;;2.49;79.51;100107.33;104984;1332;22467;-66
2021/11/09 05:38:30;;;;;;;2.70;2.30;;;;;;;2.48;79.11;100109.75;104758;1331;137822;-66
2021/11/09 05:41:06;;;;;;;3.70;2.60;;;;;;;2.46;78.97;100111.09;101718;1328;25339;-65
2021/11/09 05:43:34;;;;;;;5.00;3.30;;;;;;;2.42;78.94;100116.58;100870;1328;25994;-65
2021/11/09 05:46:03;;;;;;;3.10;2.50;;;;;;;2.40;78.91;100124.03;100804;1329;137633;-65
2021/11/09 05:48:31;;;;;;;6.30;3.40;;;;;;;2.39;79.04;100126.17;104510;1328;23372;-66
2021/11/09 05:50:59;;;;;;;3.70;2.80;;;;;;;2.39;79.03;100124.59;104915;1328;137519;-66
2021/11/09 05:53:27;;;;;;;4.10;3.10;;;;;;;2.40;78.91;100127.14;105090;1328;22386;-66
2021/11/09 05:55:58;;;;;;;4.50;3.00;;;;;;;2.40;78.53;100129.71;104950;1328;22539;-66
2021/11/09 05:58:26;;;;;;;4.10;3.00;;;;;;;2.41;78.26;100137.00;104882;1327;139305;-66
2021/11/09 06:00:54;;;;;;;5.50;3.10;;;;;;;2.42;78.25;100142.88;104544;1331;22508;-66
2021/11/09 06:03:23;;;;;;;6.20;3.60;;;;;;;2.45;78.41;100147.13;105878;1320;139312;-66
2021/11/09 06:05:52;;;;;;;5.10;3.70;;;;;;;2.47;78.36;100145.89;105941;1321;22497;-67
2021/11/09 06:08:21;;;;;;;5.30;2.90;;;;;;;2.52;78.29;100157.21;105527;1322;137700;-66
2021/11/09 06:10:51;;;;;;;6.50;2.90;;;;;;;2.54;77.92;100159.35;106031;1321;22469;-67
2021/11/09 06:13:39;;;;;;;;;;;;;;;2.54;77.83;100165.19;106009;1320;23250;-71
2021/11/09 06:16:07;;;;;;;5.60;3.80;;;;;;;2.54;77.69;100168.78;105745;1321;124476;-73
2021/11/09 06:18:35;;;;;;;3.70;3.00;;;;;;;2.54;77.51;100173.83;106011;1324;22403;-74
2021/11/09 06:21:04;;;;;;;3.90;2.90;;;;;;;2.52;77.31;100181.38;105919;1319;137660;-73
2021/11/09 06:23:32;;;;;;;4.80;3.50;;;;;;;2.49;77.33;100192.27;105908;1321;23091;-73
2021/11/09 06:26:00;;;;;;;5.90;3.80;;;;;;;2.48;77.21;100192.08;105850;1321;22620;-72
2021/11/09 06:28:29;;;;;;;4.30;3.20;;;;;;;2.45;76.85;100197.69;105672;1320;137466;-74
2021/11/09 06:30:58;;;;;;;5.80;3.00;;;;;;;2.39;76.94;100198.44;105977;1321;22450;-73
2021/11/09 06:33:26;;;;;;;4.40;3.40;;;;;;;2.34;76.85;100202.42;105822;1321;138502;-72
2021/11/09 06:35:55;;;;;;;5.70;3.40;;;;;;;2.31;76.68;100207.77;106063;1318;22500;-72
2021/11/09 06:38:23;;;;;;;12.60;6.30;;;;;;;2.27;76.74;100210.97;106015;1318;137601;-72
2021/11/09 06:40:51;;;;;;;13.60;5.20;;;;;;;2.24;76.97;100207.67;106059;1318;23259;-67
2021/11/09 06:43:19;;;;;;;6.30;3.80;;;;;;;2.21;76.88;100214.05;106069;1318;22471;-67
2021/11/09 06:45:48;;;;;;;3.60;2.70;;;;;;;2.19;76.88;100215.79;105501;1318;140262;-68
2021/11/09 06:48:18;;;;;;;5.60;2.30;;;;;;;2.16;76.61;100220.23;106149;1324;22290;-67
2021/11/09 06:50:46;;;;;;;2.80;2.50;;;;;;;2.13;76.53;100223.10;105925;1319;138055;-68
2021/11/09 06:53:14;;;;;;;4.10;2.50;;;;;;;2.12;76.35;100225.16;106058;1323;22472;-68
2021/11/09 06:55:43;;;;;;;4.90;3.20;;;;;;;2.14;76.48;100229.23;106103;1318;22470;-67
2021/11/09 06:58:11;;;;;;;7.40;3.80;;;;;;;2.18;76.56;100226.30;105993;1322;138086;-67
2021/11/09 07:00:39;;;;;;;5.70;2.10;;;;;;;2.23;75.80;100231.73;106097;1319;22491;-68
2021/11/09 07:03:07;;;;;;;3.30;2.50;;;;;;;2.25;75.28;100237.06;106038;1319;137542;-67
2021/11/09 07:05:39;;;;;;;4.70;2.60;;;;;;;2.25;75.01;100237.60;106126;1323;22275;-67
2021/11/09 07:08:07;;;;;;;7.50;4.40;;;;;;;2.25;74.90;100248.02;106120;1319;22466;-67
2021/11/09 07:10:36;;;;;;;5.10;4.60;;;;;;;2.24;74.73;100246.32;105901;1324;137254;-67
2021/11/09 07:13:04;;;;;;;6.60;5.30;;;;;;;2.23;74.55;100249.55;106109;1319;22462;-67
2021/11/09 07:15:33;;;;;;;4.30;3.50;;;;;;;2.21;74.75;100253.67;105865;1319;138321;-67
2021/11/09 07:18:21;;;;;;;7.20;4.10;;;;;;;2.22;74.48;100258.23;106121;1321;23321;-68
2021/11/09 07:20:50;;;;;;;5.50;3.20;;;;;;;2.25;74.65;100262.17;106051;1319;137931;-68
2021/11/09 07:23:21;;;;;;;6.80;4.50;;;;;;;2.29;74.40;100267.95;105273;1326;22498;-67
2021/11/09 07:25:50;;;;;;;3.80;2.50;;;;;;;2.31;73.78;100272.30;106157;1318;22424;-67
2021/11/09 07:28:19;;;;;;;4.90;2.90;;;;;;;2.32;73.72;100283.81;106025;1320;141072;-67
2021/11/09 07:30:58;;;;;;;10.90;5.30;;;;;;;2.33;73.48;100284.85;106134;1319;23564;-67
2021/11/09 07:33:27;;;;;;;5.80;4.20;;;;;;;2.33;73.47;100283.23;106027;1318;137620;-68
2021/11/09 07:35:55;;;;;;;2.80;2.10;;;;;;;2.34;73.51;100293.14;106102;1318;23195;-67
2021/11/09 07:38:23;;;;;;;8.30;4.80;;;;;;;2.33;73.13;100300.59;105263;1319;138276;-67
2021/11/09 07:40:53;;;;;;;6.90;3.20;;;;;;;2.34;73.20;100301.95;106122;1319;23233;-72
2021/11/09 07:43:22;;;;;;;3.10;2.40;;;;;;;2.34;73.32;100294.77;106160;1324;22396;-72
2021/11/09 07:45:50;;;;;;;3.70;2.60;;;;;;;2.37;73.37;100300.67;106047;1318;137676;-72
2021/11/09 07:48:18;;;;;;;4.20;2.20;;;;;;;2.38;72.94;100298.95;106186;1318;22528;-71
2021/11/09 07:50:46;;;;;;;5.30;2.40;;;;;;;2.36;72.75;100301.65;105946;1324;138027;-72
2021/11/09 07:53:16;;;;;;;5.20;2.90;;;;;;;2.33;72.80;100299.84;106149;1322;22382;-72
2021/11/09 07:56:31;;;;;;;4.40;3.00;;;;;;;2.34;72.91;100306.72;106137;1319;22479;-72
2021/11/09 07:59:28;;;;;;;6.90;3.60;;;;;;;2.36;72.83;100307.58;105964;1325;139282;-72
2021/11/09 08:04:27;;;;;;;3.80;2.10;;;;;;;2.36;72.17;100319.78;105854;1324;138108;-72
2021/11/09 08:07:01;;;;;;;3.00;1.80;;;;;;;2.37;71.67;100327.04;105144;1324;22502;-71
2021/11/09 08:09:31;;;;;;;2.00;1.80;;;;;;;2.37;71.47;100335.77;102903;1318;137746;-71
2021/11/09 08:12:01;;;;;;;4.10;1.90;;;;;;;2.37;71.30;100342.45;106133;1318;23339;-73
2021/11/09 08:14:29;;;;;;;2.60;1.90;;;;;;;2.34;71.45;100347.02;106087;1324;138144;-74
2021/11/09 08:16:57;;;;;;;3.30;2.00;;;;;;;2.35;71.47;100350.34;106158;1319;23170;-74
2021/11/09 08:19:26;;;;;;;6.30;3.00;;;;;;;2.38;71.61;100356.77;106186;1319;23324;-73
2021/11/09 08:21:55;;;;;;;8.50;4.40;;;;;;;2.41;71.57;100357.14;105782;1327;137906;-73
2021/11/09 08:24:24;;;;;;;5.80;3.40;;;;;;;2.48;71.63;100358.42;104668;1330;22472;-73
2021/11/09 08:26:53;;;;;;;4.80;3.30;;;;;;;2.54;71.60;100361.70;106062;1323;138515;-72
2021/11/09 08:29:25;;;;;;;4.80;2.40;;;;;;;2.61;71.32;100363.58;106203;1325;22529;-72
2021/11/09 08:31:54;;;;;;;20.90;8.90;;;;;;;2.63;71.19;100362.36;106105;1319;22477;-73
2021/11/09 08:34:23;;;;;;;6.10;3.30;;;;;;;2.68;70.76;100366.29;106027;1324;138751;-72
2021/11/09 08:36:51;;;;;;;3.90;2.50;;;;;;;2.72;70.37;100370.31;106149;1324;22556;-73
2021/11/09 08:39:36;;;;;;;3.20;2.00;;;;;;;2.76;69.83;100372.64;102710;1319;137667;-72
2021/11/09 08:44:44;;;;;;;3.00;1.80;;;;;;;2.76;69.32;100373.55;102034;1320;138077;-71
2021/11/09 08:47:16;;;;;;;1.90;1.60;;;;;;;2.75;68.97;100379.20;102005;1323;22591;-71
2021/11/09 08:49:44;;;;;;;3.30;2.40;;;;;;;2.74;68.92;100381.19;101840;1324;24118;-71
2021/11/09 08:52:14;;;;;;;2.20;1.60;;;;;;;2.71;69.00;100387.73;101754;1324;138704;-71
2021/11/09 08:54:58;;;;;;;3.40;2.00;;;;;;;2.67;68.89;100386.30;105983;1319;23341;-72
2021/11/09 09:05:48;;;;;;;2.70;1.60;;;;;;;2.52;68.53;100407.48;106130;1319;22442;-72
2021/11/09 09:08:16;;;;;;;2.90;1.40;;;;;;;2.48;68.26;100405.39;105933;1324;139227;-72
2021/11/09 09:10:44;;;;;;;3.80;2.00;;;;;;;2.45;68.19;100403.81;106106;1320;22498;-71
2021/11/09 09:13:13;;;;;;;2.80;2.00;;;;;;;2.46;68.30;100412.10;106102;1324;22530;-72
2021/11/09 09:15:42;;;;;;;5.30;2.10;;;;;;;2.49;68.22;100416.25;106000;1319;138057;-72
2021/11/09 09:18:12;;;;;;;5.10;2.70;;;;;;;2.53;68.05;100415.57;106070;1325;23161;-72
2021/11/09 09:20:47;;;;;;;3.40;2.40;;;;;;;2.56;66.94;100425.64;106041;1319;139217;-72
2021/11/09 09:23:17;;;;;;;2.70;1.90;;;;;;;2.55;66.24;100431.33;106110;1324;23163;-72
2021/11/09 09:33:42;;;;;;;3.30;2.00;;;;;;;2.50;63.61;100446.47;106046;1325;138420;-72
2021/11/09 09:53:23;;;;;;;2.80;1.80;;;;;;;2.63;64.73;100458.54;105972;1320;23269;-72
2021/11/09 09:56:05;;;;;;;3.30;2.00;;;;;;;2.65;64.51;100459.23;105966;1319;22460;-72
2021/11/09 09:58:34;;;;;;;6.10;1.90;;;;;;;2.70;64.46;100456.14;105831;1324;137619;-72
2021/11/09 10:01:02;;;;;;;2.20;1.60;;;;;;;2.73;63.16;100462.83;106016;1324;22448;-72
2021/11/09 10:03:36;;;;;;;5.30;1.90;;;;;;;2.74;63.04;100466.75;105843;1324;139003;-71
2021/11/09 10:06:06;;;;;;;3.50;1.90;;;;;;;2.76;62.91;100467.55;106180;1324;22474;-72
2021/11/09 10:08:49;;;;;;;4.40;2.30;;;;;;;2.79;63.37;100468.44;105835;1321;139957;-71
2021/11/09 10:11:31;;;;;;;3.80;1.90;;;;;;;2.93;63.13;100471.54;105993;1322;22491;-72
2021/11/09 10:14:00;;;;;;;5.60;2.80;;;;;;;3.05;62.54;100469.15;106115;1318;24059;-71
2021/11/09 10:16:29;;;;;;;3.90;2.00;;;;;;;3.16;61.93;100467.48;105871;1324;139822;-72
2021/11/09 10:18:57;;;;;;;2.50;1.50;;;;;;;3.28;60.94;100468.42;105963;1323;22643;-72
2021/11/09 10:21:34;;;;;;;3.50;1.30;;;;;;;3.34;60.37;100466.37;105910;1320;139478;-72
2021/11/09 10:24:03;;;;;;;4.00;1.30;;;;;;;3.36;60.03;100468.64;106143;1323;22549;-71
2021/11/09 10:26:34;;;;;;;6.30;1.60;;;;;;;3.34;60.41;100465.42;105568;1323;138026;-71
2021/11/09 10:29:06;;;;;;;2.30;1.30;;;;;;;3.34;60.11;100467.79;106221;1316;23287;-72
2021/11/09 10:31:40;;;;;;;5.10;1.80;;;;;;;3.37;58.93;100466.20;106183;1318;22524;-72
2021/11/09 10:34:21;;;;;;;2.10;1.50;;;;;;;3.39;58.13;100473.90;106071;1316;137251;-72
2021/11/09 10:36:49;;;;;;;2.10;1.20;;;;;;;3.33;58.22;100477.39;106246;1319;22256;-72
2021/11/09 10:39:19;;;;;;;2.30;1.50;;;;;;;3.26;58.46;100476.31;106069;1320;137194;-66
2021/11/09 10:42:07;;;;;;;2.30;1.50;;;;;;;3.24;58.48;100472.70;106178;1319;22564;-67
2021/11/09 10:44:39;;;;;;;2.90;1.40;;;;;;;3.25;57.65;100472.89;106078;1316;139691;-67
2021/11/09 10:47:21;;;;;;;5.50;2.20;;;;;;;3.29;58.25;100471.14;106159;1322;22441;-67
2021/11/09 10:49:59;;;;;;;3.00;2.00;;;;;;;3.36;58.18;100470.71;106190;1320;22517;-67
2021/11/09 10:52:35;;;;;;;6.30;2.00;;;;;;;3.44;57.74;100470.99;106042;1324;137618;-67
2021/11/09 11:06:27;;;;;;;6.60;2.20;;;;;;;3.76;56.47;100489.34;106172;1317;22604;-67
2021/11/09 11:09:08;;;;;;;2.20;1.60;;;;;;;3.79;56.98;100492.95;106109;1316;137533;-68
2021/11/09 11:11:59;;;;;;;10.00;1.90;;;;;;;3.80;56.84;100500.80;104922;1316;22603;-67
2021/11/09 11:14:29;;;;;;;3.30;1.90;;;;;;;3.79;56.79;100496.34;102127;1318;137544;-67
2021/11/09 11:17:08;;;;;;;3.00;1.70;;;;;;;3.71;57.24;100495.02;106111;1318;22389;-67
2021/11/09 11:19:40;;;;;;;2.50;1.40;;;;;;;3.66;57.06;100503.16;106219;1316;22399;-67
2021/11/09 11:22:09;;;;;;;2.50;1.10;;;;;;;3.57;56.92;100505.96;105910;1316;137404;-68
2021/11/09 11:24:38;;;;;;;6.80;1.70;;;;;;;3.50;56.78;100506.61;106209;1317;22436;-67
2021/11/09 11:27:07;;;;;;;3.20;1.10;;;;;;;3.48;56.39;100514.34;105933;1316;137993;-67
2021/11/09 11:29:36;;;;;;;2.10;1.10;;;;;;;3.49;56.06;100513.35;106176;1316;22559;-67
2021/11/09 11:32:09;;;;;;;1.80;1.00;;;;;;;3.47;56.20;100518.75;106137;1316;22445;-67
2021/11/09 11:34:37;;;;;;;3.20;1.40;;;;;;;3.45;56.32;100524.92;106029;1316;138441;-67
2021/11/09 11:37:06;;;;;;;2.30;1.40;;;;;;;3.43;56.44;100528.37;106089;1320;22471;-67
2021/11/09 11:39:35;;;;;;;2.00;1.20;;;;;;;3.41;56.70;100525.08;106060;1316;139193;-68
2021/11/09 11:42:08;;;;;;;3.80;2.00;;;;;;;3.44;57.08;100530.55;106029;1318;22499;-67
2021/11/09 11:44:38;;;;;;;4.40;1.80;;;;;;;3.49;56.48;100526.04;106038;1322;137236;-67
2021/11/09 11:47:16;;;;;;;4.00;1.40;;;;;;;3.55;55.99;100531.35;106136;1318;22503;-67
2021/11/09 11:49:54;;;;;;;2.40;1.40;;;;;;;3.53;54.51;100540.48;106123;1316;23187;-67
2021/11/09 11:52:27;;;;;;;1.60;1.00;;;;;;;3.45;54.68;100538.93;106014;1316;137299;-67
2021/11/09 11:55:21;;;;;;;2.60;1.30;;;;;;;3.39;54.91;100543.48;106076;1319;22522;-67
2021/11/09 11:57:53;;;;;;;9.70;3.30;;;;;;;3.29;55.26;100538.83;106005;1317;138287;-68
2021/11/09 12:00:28;;;;;;;6.30;3.00;;;;;;;3.24;55.66;100550.73;106112;1316;23262;-67
2021/11/09 12:03:01;;;;;;;24.10;9.60;;;;;;;3.20;55.85;100554.23;106020;1316;138197;-67
2021/11/09 12:05:39;;;;;;;16.50;5.40;;;;;;;3.17;56.07;100554.90;106052;1316;22662;-72
2021/11/09 12:08:09;;;;;;;10.30;3.60;;;;;;;3.14;56.33;100558.42;103082;1319;24296;-66
2021/11/09 12:10:39;;;;;;;21.90;7.40;;;;;;;3.11;56.38;100562.85;102653;1316;139248;-60
2021/11/09 12:13:10;;;;;;;31.60;10.60;;;;;;;3.06;56.12;100567.77;105470;1320;23281;-61
2021/11/09 12:16:01;;;;;;;7.50;3.10;;;;;;;3.01;55.97;100569.83;104829;1316;137900;-62
2021/11/09 12:18:35;;;;;;;16.60;8.90;;;;;;;2.95;56.30;100572.53;106067;1315;22405;-66
2021/11/09 12:21:08;;;;;;;12.80;7.80;;;;;;;2.90;56.04;100580.32;106007;1320;137434;-66
2021/11/09 12:23:37;;;;;;;29.90;13.90;;;;;;;2.84;56.33;100583.17;106107;1316;22398;-66
2021/11/09 12:26:38;;;;;;;23.20;15.00;;;;;;;2.81;56.71;100585.11;106053;1318;137946;-66
2021/11/09 12:29:36;;;;;;;10.90;8.50;;;;;;;2.79;57.16;100582.38;106121;1316;22443;-67
2021/11/09 12:32:26;;;;;;;7.30;5.50;;;;;;;2.81;57.49;100588.61;106196;1316;22544;-68
2021/11/09 12:35:02;;;;;;;5.90;3.70;;;;;;;2.89;57.41;100593.52;106052;1316;137846;-68
2021/11/09 12:37:41;;;;;;;;;;;;;;;2.97;57.31;100591.33;106121;1316;23716;-67
2021/11/09 12:40:23;;;;;;;4.20;1.30;;;;;;;3.03;56.66;100598.71;106093;1316;124188;-68
2021/11/09 12:43:14;;;;;;;4.90;2.30;;;;;;;3.04;56.48;100603.56;106156;1316;22252;-66
2021/11/09 12:46:15;;;;;;;1.70;1.10;;;;;;;3.02;56.42;100610.67;106075;1318;137116;-66
2021/11/09 12:48:50;;;;;;;2.70;1.60;;;;;;;2.95;56.36;100613.45;105955;1316;22398;-66
2021/11/09 12:51:27;;;;;;;2.60;1.50;;;;;;;2.90;56.70;100619.60;104621;1316;137337;-66
2021/11/09 12:53:58;;;;;;;2.70;1.90;;;;;;;2.89;56.50;100624.18;102004;1318;23953;-66
2021/11/09 12:56:37;;;;;;;2.80;1.70;;;;;;;2.91;56.76;100627.61;106113;1316;23224;-66
2021/11/09 12:59:14;;;;;;;5.70;1.50;;;;;;;2.93;56.96;100627.83;106107;1318;136927;-66
2021/11/09 13:01:51;;;;;;;2.10;1.50;;;;;;;2.98;56.92;100628.36;106106;1316;22506;-66
2021/11/09 13:09:45;;;;;;;1.40;0.90;;;;;;;3.07;56.79;100645.24;105973;1316;137464;-66
2021/11/09 13:12:20;;;;;;;3.10;1.20;;;;;;;3.05;56.69;100646.73;106093;1318;23324;-66
2021/11/09 13:14:51;;;;;;;7.20;1.40;;;;;;;3.02;56.68;100657.68;106036;1316;137166;-66
2021/11/09 13:17:54;;;;;;;3.90;1.20;;;;;;;2.99;57.30;100661.64;106150;1318;22481;-66
2021/11/09 13:23:03;;;;;;;2.60;1.20;;;;;;;2.90;56.88;100676.85;106109;1316;138638;-66
2021/11/09 13:25:40;;;;;;;3.60;1.60;;;;;;;2.83;57.31;100680.88;106141;1316;22512;-66
2021/11/09 13:28:12;;;;;;;1.90;1.40;;;;;;;2.78;56.75;100686.85;106102;1316;138316;-68
2021/11/09 13:30:51;;;;;;;5.70;1.40;;;;;;;2.71;56.90;100693.11;106169;1316;22458;-68
2021/11/09 13:33:20;;;;;;;2.20;1.50;;;;;;;2.64;57.16;100693.58;105961;1316;137243;-68
2021/11/09 13:35:48;;;;;;;9.30;1.70;;;;;;;2.61;57.30;100701.96;106212;1316;22435;-68
2021/11/09 13:38:21;;;;;;;4.80;1.40;;;;;;;2.57;57.46;100705.30;106184;1316;22480;-67
2021/11/09 13:40:58;;;;;;;1.60;1.20;;;;;;;2.53;57.69;100714.23;106040;1316;137102;-67
2021/11/09 13:43:33;;;;;;;2.40;1.20;;;;;;;2.48;57.82;100716.70;106128;1318;23330;-67
2021/11/09 13:46:12;;;;;;;7.70;1.70;;;;;;;2.46;57.98;100725.42;105657;1316;137826;-66
2021/11/09 13:48:43;;;;;;;1.90;1.30;;;;;;;2.40;57.97;100735.31;106096;1316;22455;-66
2021/11/09 13:51:13;;;;;;;3.30;1.50;;;;;;;2.31;58.18;100737.16;106078;1318;139032;-66
2021/11/09 13:53:43;;;;;;;2.70;1.90;;;;;;;2.26;58.20;100747.21;106153;1315;22467;-67
2021/11/09 13:56:14;;;;;;;2.50;1.70;;;;;;;2.20;58.43;100745.44;105563;1316;22509;-67
2021/11/09 13:58:52;;;;;;;4.90;2.10;;;;;;;2.14;58.19;100749.84;106061;1318;136433;-67
2021/11/09 14:01:42;;;;;;;5.70;1.50;;;;;;;2.09;58.56;100756.55;106102;1316;22515;-65
2021/11/09 14:15:50;;;;;;;11.80;4.70;;;;;;;1.80;60.06;100784.86;106021;1316;137668;-65
2021/11/09 14:18:20;;;;;;;14.20;8.10;;;;;;;1.76;60.18;100790.33;106201;1316;22447;-66
2021/11/09 14:20:54;;;;;;;11.50;7.50;;;;;;;1.73;60.50;100801.27;105972;1318;139897;-65
2021/11/09 14:23:36;;;;;;;4.80;3.40;;;;;;;1.71;60.47;100809.36;106205;1316;23122;-67
2021/11/09 14:26:18;;;;;;;1.50;1.40;;;;;;;1.69;60.06;100815.84;105963;1315;144980;-65
2021/11/09 14:28:47;;;;;;;3.80;1.10;;;;;;;1.60;59.30;100820.42;106169;1316;22404;-65
2021/11/09 14:31:26;;;;;;;5.30;2.00;;;;;;;1.52;59.74;100827.59;106232;1318;23271;-65
2021/11/09 14:34:10;;;;;;;3.90;1.70;;;;;;;1.44;60.28;100828.83;106134;1317;137788;-65
2021/11/09 14:36:40;;;;;;;7.40;1.60;;;;;;;1.37;60.58;100830.61;106226;1318;22419;-65